aviador You're here:

KHDO Decoded Metar

HONDO in TX, USA
Report Time2017-08-22 02:51:00
UTC Time2017-08-22 03:26:31
Flight Rules vfr VFR
Wind100° at 08 kt
W.Decomp.*RWY 08: 7.8 kt HW 1.7 kt RCW
RWY 13: 6.3 kt HW 4.9 kt LCW
RWY 17: 1.7 kt HW 7.8 kt LCW
W.Rank100° ranks 11
Current wind is above 100° avg. (6.5)
Visibility9999 m
Phenomena:N/A
Clouds:Scattered 060 Hf
Overcast 075 Hf
Expected CloudBase > 4,000 ft AGL from Temp-Dew spread
Ceiling7,500 ft
Temp31°C (ISA +18)
Dew Point21°C (55% RH)
Heat Index33.7°C
QNH1017 hPa
Density Alt3,159 ft
Elevation925 ft
Report Wrong Elevation
Raw Report
METAR KHDO 220251Z AUTO 10008KT 10SM SCT060 OVC075 31/21 A3004 RMK
AO2 SLP154 T03110206 53013=

Extra information for KHDO:More info

Metar Taf Metar & Taf Last 4 Metars F.Rules Stats Wind Profile Meteogram Temp Stats Airport Information Weather charts Add Link Nearby VenuesMetar ALERT Operation Metar Decoded Social comments

AIRNAV info for KHDO